createdAt,value
2023-01-03T00:02:23.042Z,6.97
2023-01-03T00:04:50.485Z,6.55
2023-01-03T00:07:34.006Z,7.20
2023-01-03T00:10:06.714Z,6.95
2023-01-03T00:12:34.048Z,4.88
2023-01-03T00:15:01.286Z,6.85
2023-01-03T00:17:29.006Z,3.85
2023-01-03T00:19:56.575Z,6.28
2023-01-03T00:22:23.685Z,6.40
2023-01-03T00:24:52.677Z,6.32
2023-01-03T00:29:46.896Z,6.18
2023-01-03T00:32:14.471Z,6.68
2023-01-03T00:34:44.026Z,6.60
2023-01-03T00:37:11.267Z,5.05
2023-01-03T00:39:38.649Z,4.72
2023-01-03T00:42:06.004Z,7.00
2023-01-03T00:44:33.550Z,6.25
2023-01-03T00:47:00.975Z,5.53
2023-01-03T00:49:28.150Z,6.55
2023-01-03T00:51:55.410Z,7.25
2023-01-03T00:54:22.812Z,6.22
2023-01-03T00:56:51.136Z,6.75
2023-01-03T00:59:19.061Z,5.30
2023-01-03T01:01:48.220Z,6.85
2023-01-03T01:04:20.420Z,6.15
2023-01-03T01:06:50.077Z,6.53
2023-01-03T01:09:36.762Z,5.53
2023-01-03T01:12:04.872Z,6.10
2023-01-03T01:14:33.810Z,6.10
2023-01-03T01:19:29.604Z,6.78
2023-01-03T01:21:56.779Z,6.22
2023-01-03T01:24:24.385Z,5.63
2023-01-03T01:26:53.186Z,6.57
2023-01-03T01:29:20.726Z,6.55
2023-01-03T01:31:48.280Z,6.82
2023-01-03T01:34:15.943Z,6.80
2023-01-03T01:36:43.649Z,6.32
2023-01-03T01:39:12.932Z,5.55
2023-01-03T01:41:59.256Z,5.32
2023-01-03T01:44:44.624Z,6.55
2023-01-03T01:47:30.391Z,6.57
2023-01-03T01:50:17.768Z,6.82
2023-01-03T01:53:03.723Z,6.70
2023-01-03T01:55:32.932Z,5.93
2023-01-03T01:58:01.845Z,5.80
2023-01-03T02:00:29.496Z,5.10
2023-01-03T02:02:56.887Z,7.43
2023-01-03T02:05:24.470Z,7.30
2023-01-03T02:07:52.305Z,7.78
2023-01-03T02:10:29.650Z,7.57
2023-01-03T02:13:07.357Z,8.18
2023-01-03T02:15:43.681Z,8.20
2023-01-03T02:18:29.622Z,7.72
2023-01-03T02:21:06.007Z,8.25
2023-01-03T02:23:39.288Z,9.70
2023-01-03T02:26:09.604Z,8.43
2023-01-03T02:28:49.067Z,7.93
2023-01-03T02:31:25.370Z,11.85
2023-01-03T02:34:11.393Z,9.55
2023-01-03T02:36:44.710Z,11.00
2023-01-03T02:39:19.116Z,7.65
2023-01-03T02:42:28.388Z,8.43
2023-01-03T02:44:58.867Z,10.20
2023-01-03T02:47:27.067Z,11.32
2023-01-03T02:49:54.850Z,11.25
2023-01-03T02:52:24.679Z,10.52
2023-01-03T02:55:03.867Z,11.45
2023-01-03T02:57:34.575Z,11.32
2023-01-03T03:00:08.654Z,10.48
2023-01-03T03:02:36.957Z,10.65
2023-01-03T03:05:07.076Z,8.07
2023-01-03T03:07:39.257Z,10.38
2023-01-03T03:10:26.169Z,8.65
2023-01-03T03:13:14.727Z,10.23
2023-01-03T03:15:47.660Z,10.73
2023-01-03T03:18:17.541Z,9.13
2023-01-03T03:21:03.110Z,12.18
2023-01-03T03:23:50.937Z,12.82
2023-01-03T03:26:21.494Z,13.13
2023-01-03T03:28:51.327Z,14.65
2023-01-03T03:31:23.017Z,12.60
2023-01-03T03:33:52.877Z,10.05
2023-01-03T03:36:28.843Z,12.68
2023-01-03T03:38:56.184Z,12.65
2023-01-03T03:41:53.022Z,12.90
2023-01-03T03:44:44.956Z,14.32
2023-01-03T03:47:19.963Z,15.15
2023-01-03T03:49:49.910Z,10.65
2023-01-03T03:52:18.678Z,10.75
2023-01-03T03:54:49.286Z,10.77
2023-01-03T03:57:30.807Z,10.77
2023-01-03T04:00:00.676Z,11.30
2023-01-03T04:02:28.959Z,11.18
2023-01-03T04:04:57.808Z,8.98
2023-01-03T04:07:24.985Z,8.18
2023-01-03T04:09:52.119Z,9.88
2023-01-03T04:12:19.500Z,10.68
2023-01-03T04:14:46.711Z,11.30
2023-01-03T04:17:13.863Z,12.77
2023-01-03T04:19:40.973Z,13.65
2023-01-03T04:22:08.163Z,16.48
2023-01-03T04:24:35.312Z,18.30
2023-01-03T04:27:02.728Z,19.77
2023-01-03T04:29:31.727Z,19.88
2023-01-03T04:32:02.834Z,18.75
2023-01-03T04:34:30.063Z,17.17
2023-01-03T04:36:57.150Z,16.10
2023-01-03T04:39:24.278Z,12.68
2023-01-03T04:41:51.366Z,15.02
2023-01-03T04:44:18.458Z,14.75
2023-01-03T04:46:52.283Z,15.57
2023-01-03T04:49:20.479Z,12.75
2023-01-03T04:51:47.905Z,15.63
2023-01-03T04:54:15.157Z,14.27
2023-01-03T04:56:42.291Z,14.63
2023-01-03T04:59:09.372Z,15.32
2023-01-03T05:01:36.668Z,14.30
2023-01-03T05:04:05.078Z,13.98
2023-01-03T05:06:32.268Z,15.20
2023-01-03T05:08:59.376Z,14.43
2023-01-03T05:11:26.537Z,13.43
2023-01-03T05:13:53.672Z,13.23
2023-01-03T05:16:21.351Z,14.68
2023-01-03T05:18:51.283Z,16.75
2023-01-03T05:21:38.087Z,14.10
2023-01-03T05:24:24.670Z,14.82
2023-01-03T05:26:52.547Z,16.05
2023-01-03T05:29:20.733Z,13.35
2023-01-03T05:31:48.445Z,14.35
2023-01-03T05:34:15.860Z,11.80
2023-01-03T05:36:43.244Z,14.50
2023-01-03T05:39:10.392Z,13.32
2023-01-03T05:41:56.134Z,13.30
2023-01-03T05:44:23.274Z,12.85
2023-01-03T05:46:50.422Z,12.02
2023-01-03T05:49:18.125Z,8.75
2023-01-03T05:51:45.491Z,12.60
2023-01-03T05:54:14.586Z,12.57
2023-01-03T05:59:08.821Z,9.82
2023-01-03T06:01:36.243Z,11.40
2023-01-03T06:04:03.559Z,10.77
2023-01-03T06:06:30.754Z,10.98
2023-01-03T06:08:57.979Z,10.20
2023-01-03T06:11:25.283Z,10.77
2023-01-03T06:13:52.530Z,11.55
2023-01-03T06:16:38.816Z,11.90
2023-01-03T06:19:06.870Z,11.05
2023-01-03T06:21:34.350Z,11.93
2023-01-03T06:24:01.587Z,11.60
2023-01-03T06:26:29.006Z,11.15
2023-01-03T06:28:56.150Z,10.40
2023-01-03T06:31:23.413Z,10.90
2023-01-03T06:33:50.689Z,10.27
2023-01-03T06:36:19.068Z,10.50
2023-01-03T06:38:46.240Z,8.27
2023-01-03T06:41:14.169Z,10.30
2023-01-03T06:43:41.686Z,10.82
2023-01-03T06:46:27.784Z,14.15
2023-01-03T06:49:13.943Z,11.15
2023-01-03T06:52:18.637Z,11.43
2023-01-03T06:54:45.721Z,8.80
2023-01-03T06:57:25.991Z,12.38
2023-01-03T06:59:54.142Z,11.77
2023-01-03T07:02:21.653Z,10.35
2023-01-03T07:04:49.016Z,11.82
2023-01-03T07:07:16.237Z,9.75
2023-01-03T07:09:43.574Z,10.65
2023-01-03T07:12:29.197Z,10.27
2023-01-03T07:14:56.377Z,10.40
2023-01-03T07:17:23.476Z,9.68
2023-01-03T07:19:50.568Z,9.88
2023-01-03T07:22:17.654Z,9.35
2023-01-03T07:24:44.921Z,10.23
2023-01-03T07:27:13.165Z,9.95
2023-01-03T07:29:43.120Z,9.38
2023-01-03T07:32:13.027Z,8.20
2023-01-03T07:34:42.988Z,8.20
2023-01-03T07:37:10.248Z,10.02
2023-01-03T07:39:45.482Z,9.20
2023-01-03T07:44:58.593Z,8.45
2023-01-03T07:47:25.781Z,9.48
2023-01-03T07:49:52.966Z,9.82
2023-01-03T07:52:20.107Z,9.80
2023-01-03T07:54:47.241Z,11.15
2023-01-03T07:57:15.391Z,9.65
2023-01-03T07:59:42.503Z,9.40
2023-01-03T08:02:09.731Z,9.50
2023-01-03T08:04:37.168Z,9.13
2023-01-03T08:07:04.372Z,9.88
2023-01-03T08:09:50.239Z,8.93
2023-01-03T08:12:36.221Z,9.65
2023-01-03T08:15:03.451Z,9.82
2023-01-03T08:17:30.620Z,8.38
2023-01-03T08:19:58.026Z,9.25
2023-01-03T08:22:25.135Z,9.18
2023-01-03T08:24:52.277Z,8.98
2023-01-03T08:27:19.515Z,8.13
2023-01-03T08:29:47.772Z,8.88
2023-01-03T08:32:15.361Z,9.05
2023-01-03T08:34:44.370Z,9.23
2023-01-03T08:37:12.480Z,7.75
2023-01-03T08:39:41.481Z,8.82
2023-01-03T08:44:35.978Z,8.38
2023-01-03T08:47:07.916Z,8.40
2023-01-03T08:49:35.732Z,8.55
2023-01-03T08:52:02.953Z,8.68
2023-01-03T08:54:30.042Z,9.00
2023-01-03T08:56:57.550Z,8.80
2023-01-03T08:59:24.841Z,8.63
2023-01-03T09:01:52.241Z,8.07
2023-01-03T09:04:19.667Z,8.55
2023-01-03T09:06:46.784Z,9.40
2023-01-03T09:09:14.055Z,9.52
2023-01-03T09:11:41.155Z,9.32
2023-01-03T09:14:08.292Z,9.48
2023-01-03T09:16:35.490Z,8.80
2023-01-03T09:19:02.811Z,9.25
2023-01-03T09:21:31.024Z,9.35
2023-01-03T09:23:58.795Z,9.30
2023-01-03T09:26:26.276Z,10.75
2023-01-03T09:28:53.532Z,9.75
2023-01-03T09:31:20.726Z,10.88
2023-01-03T09:33:47.981Z,9.40
2023-01-03T09:36:15.130Z,11.63
2023-01-03T09:38:42.311Z,10.23
2023-01-03T09:41:13.102Z,11.32
2023-01-03T09:43:41.969Z,10.68
2023-01-03T09:46:20.229Z,10.18
2023-01-03T09:48:48.599Z,11.63
2023-01-03T09:51:45.033Z,11.73
2023-01-03T09:54:32.114Z,12.55
2023-01-03T09:57:23.213Z,11.90
2023-01-03T10:00:12.330Z,12.40
2023-01-03T10:02:58.591Z,10.25
2023-01-03T10:05:44.371Z,12.70
2023-01-03T10:08:30.498Z,12.02
2023-01-03T10:11:05.716Z,12.15
2023-01-03T10:13:51.414Z,11.60
2023-01-03T10:16:18.587Z,13.02
2023-01-03T10:19:11.494Z,13.10
2023-01-03T10:22:01.731Z,12.63
2023-01-03T10:24:32.809Z,12.32
2023-01-03T10:27:29.345Z,12.90
2023-01-03T10:29:57.824Z,9.18
2023-01-03T10:32:49.392Z,11.25
2023-01-03T10:35:19.633Z,13.35
2023-01-03T10:37:47.277Z,15.27
2023-01-03T10:40:14.812Z,13.63
2023-01-03T10:42:43.117Z,13.45
2023-01-03T10:45:17.627Z,12.65
2023-01-03T10:47:44.997Z,10.13
2023-01-03T10:50:22.710Z,13.23
2023-01-03T10:52:57.143Z,12.63
2023-01-03T10:55:26.523Z,10.35
2023-01-03T10:57:53.835Z,11.82
2023-01-03T11:00:21.434Z,13.00
2023-01-03T11:02:49.140Z,11.35
2023-01-03T11:05:18.069Z,10.27
2023-01-03T11:07:46.096Z,12.70
2023-01-03T11:10:17.828Z,11.88
2023-01-03T11:12:46.849Z,10.98
2023-01-03T11:15:39.054Z,10.40
2023-01-03T11:18:27.877Z,10.52
2023-01-03T11:21:00.117Z,10.95
2023-01-03T11:23:36.392Z,9.50
2023-01-03T11:26:17.950Z,9.75
2023-01-03T11:29:10.522Z,11.02
2023-01-03T11:31:53.145Z,11.20
2023-01-03T11:34:48.223Z,10.70
2023-01-03T11:37:22.566Z,10.40
2023-01-03T11:39:49.672Z,9.98
2023-01-03T11:42:16.807Z,11.35
2023-01-03T11:44:50.618Z,10.70
2023-01-03T11:47:23.998Z,10.77
2023-01-03T11:50:09.735Z,11.27
2023-01-03T11:52:48.026Z,9.02
2023-01-03T11:55:31.686Z,12.13
2023-01-03T11:58:17.371Z,11.13
2023-01-03T12:00:56.053Z,11.52
2023-01-03T12:03:44.352Z,10.27
2023-01-03T12:06:21.342Z,11.70
2023-01-03T12:09:00.682Z,9.80
2023-01-03T12:11:27.771Z,10.20
2023-01-03T12:14:06.918Z,11.07
2023-01-03T12:16:37.686Z,11.05
2023-01-03T12:19:12.502Z,10.10
2023-01-03T12:21:42.379Z,11.05
2023-01-03T12:24:28.447Z,8.88
2023-01-03T12:27:03.290Z,9.57
2023-01-03T12:29:30.417Z,9.20
2023-01-03T12:32:11.975Z,9.95
2023-01-03T12:34:48.336Z,9.93
2023-01-03T12:37:17.945Z,9.07
2023-01-03T12:39:56.863Z,8.63
2023-01-03T12:42:30.002Z,8.40
2023-01-03T12:45:13.644Z,8.05
2023-01-03T12:47:51.452Z,7.78
2023-01-03T12:50:36.443Z,7.70
2023-01-03T12:53:22.669Z,8.05
2023-01-03T12:56:08.666Z,7.70
2023-01-03T12:58:54.758Z,6.55
2023-01-03T13:01:26.679Z,6.25
2023-01-03T13:04:00.195Z,6.60
2023-01-03T13:06:33.031Z,6.38
2023-01-03T13:09:04.246Z,5.13
2023-01-03T13:11:41.907Z,5.45
2023-01-03T13:14:21.944Z,4.38
2023-01-03T13:16:49.933Z,4.93
2023-01-03T13:19:23.438Z,4.47
2023-01-03T13:21:53.731Z,4.80
2023-01-03T13:24:39.445Z,4.32
2023-01-03T13:27:24.676Z,4.47
2023-01-03T13:29:51.804Z,4.65
2023-01-03T13:32:24.852Z,4.50
2023-01-03T13:34:54.811Z,4.15
2023-01-03T13:37:22.793Z,4.43
2023-01-03T13:39:58.483Z,4.30
2023-01-03T13:42:29.898Z,3.92
2023-01-03T13:45:16.048Z,4.55
2023-01-03T13:47:47.490Z,4.78
2023-01-03T13:50:21.603Z,4.20
2023-01-03T13:53:08.949Z,4.47
2023-01-03T13:58:03.911Z,4.75
2023-01-03T14:00:31.733Z,4.13
2023-01-03T14:03:11.291Z,4.47
2023-01-03T14:05:49.287Z,4.45
2023-01-03T14:08:23.488Z,4.30
2023-01-03T14:11:02.923Z,4.15
2023-01-03T14:13:44.715Z,3.97
2023-01-03T14:16:17.835Z,4.60
2023-01-03T14:19:03.101Z,4.93
2023-01-03T14:21:45.804Z,4.40
2023-01-03T14:24:18.265Z,4.40
2023-01-03T14:26:45.478Z,4.13
2023-01-03T14:29:16.785Z,4.60
2023-01-03T14:31:48.846Z,4.45
2023-01-03T14:34:30.776Z,4.30
2023-01-03T14:37:05.799Z,4.50
2023-01-03T14:42:02.993Z,4.60
2023-01-03T14:44:31.001Z,3.40
2023-01-03T14:47:00.303Z,4.13
2023-01-03T14:49:33.847Z,3.92
2023-01-03T14:52:06.416Z,4.38
2023-01-03T14:54:34.003Z,3.95
2023-01-03T14:57:02.703Z,3.63
2023-01-03T14:59:30.041Z,4.25
2023-01-03T15:01:57.489Z,3.80
2023-01-03T15:04:25.476Z,3.60
2023-01-03T15:07:01.558Z,4.30
2023-01-03T15:09:36.115Z,5.70
2023-01-03T15:12:04.902Z,7.80
2023-01-03T15:14:39.011Z,3.58
2023-01-03T15:17:16.764Z,4.03
2023-01-03T15:19:49.242Z,4.25
2023-01-03T15:22:19.648Z,4.85
2023-01-03T15:24:48.721Z,5.05
2023-01-03T15:27:34.789Z,5.05
2023-01-03T15:30:19.158Z,6.60
2023-01-03T15:32:50.127Z,5.90
2023-01-03T15:35:35.947Z,5.03
2023-01-03T15:38:03.982Z,4.53
2023-01-03T15:40:32.066Z,5.40
2023-01-03T15:43:23.288Z,4.97
2023-01-03T15:46:04.539Z,5.40
2023-01-03T15:50:59.727Z,5.70
2023-01-03T15:53:30.839Z,4.80
2023-01-03T15:56:00.309Z,4.63
2023-01-03T15:58:27.876Z,5.70
2023-01-03T16:00:55.496Z,4.50
2023-01-03T16:03:24.673Z,5.20
2023-01-03T16:05:52.061Z,4.85
2023-01-03T16:08:22.122Z,4.53
2023-01-03T16:10:49.323Z,4.40
2023-01-03T16:13:16.507Z,4.20
2023-01-03T16:15:44.221Z,4.97
2023-01-03T16:18:15.828Z,4.57
2023-01-03T16:20:43.041Z,3.75
2023-01-03T16:23:17.561Z,4.70
2023-01-03T16:25:46.265Z,5.47
2023-01-03T16:28:13.398Z,5.88
2023-01-03T16:30:40.578Z,4.25
2023-01-03T16:33:09.955Z,4.93
2023-01-03T16:35:37.150Z,4.05
2023-01-03T16:38:04.431Z,5.15
2023-01-03T16:40:31.592Z,3.88
2023-01-03T16:42:58.710Z,3.30
2023-01-03T16:45:25.845Z,3.40
2023-01-03T16:47:53.300Z,3.35
2023-01-03T16:50:21.085Z,3.40
2023-01-03T16:52:52.441Z,2.35
2023-01-03T16:55:30.296Z,4.35
2023-01-03T16:57:57.797Z,3.38
2023-01-03T17:00:26.148Z,3.22
2023-01-03T17:02:56.057Z,3.08
2023-01-03T17:05:23.620Z,2.70
2023-01-03T17:07:51.867Z,9.75
2023-01-03T17:10:33.752Z,4.93
2023-01-03T17:13:07.040Z,3.22
2023-01-03T17:15:39.486Z,4.82
2023-01-03T17:18:06.759Z,5.40
2023-01-03T17:20:33.893Z,5.90
2023-01-03T17:23:01.199Z,4.78
2023-01-03T17:25:28.375Z,4.95
2023-01-03T17:27:57.807Z,4.53
2023-01-03T17:30:26.538Z,5.75
2023-01-03T17:32:54.005Z,5.82
2023-01-03T17:35:21.408Z,6.57
2023-01-03T17:43:03.190Z,3.25
2023-01-03T17:45:49.409Z,3.53
2023-01-03T17:48:35.343Z,3.30
2023-01-03T17:51:03.110Z,4.47
2023-01-03T17:53:30.350Z,3.88
2023-01-03T17:55:57.563Z,4.50
2023-01-03T17:58:43.692Z,9.23
2023-01-03T18:01:12.764Z,8.70
2023-01-03T18:03:40.143Z,4.00
2023-01-03T18:06:10.817Z,4.80
2023-01-03T18:08:38.004Z,6.00
2023-01-03T18:11:07.420Z,4.10
2023-01-03T18:13:36.106Z,2.90
2023-01-03T18:16:04.237Z,2.95
2023-01-03T18:18:32.451Z,3.17
2023-01-03T18:21:00.001Z,3.40
2023-01-03T18:23:27.187Z,4.30
2023-01-03T18:25:54.460Z,3.70
2023-01-03T18:28:25.402Z,3.47
2023-01-03T18:30:53.158Z,3.67
2023-01-03T18:33:20.805Z,3.92
2023-01-03T18:35:48.393Z,4.28
2023-01-03T18:38:32.973Z,2.97
2023-01-03T18:41:04.847Z,4.13
2023-01-03T18:43:32.923Z,3.63
2023-01-03T18:46:00.169Z,3.30
2023-01-03T18:48:27.446Z,3.70
2023-01-03T18:50:59.037Z,3.30
2023-01-03T18:53:28.387Z,3.05
2023-01-03T18:55:55.895Z,2.70
2023-01-03T18:58:37.180Z,2.83
2023-01-03T19:01:05.213Z,3.00
2023-01-03T19:03:33.194Z,5.05
2023-01-03T19:06:01.185Z,3.83
2023-01-03T19:08:31.187Z,3.50
2023-01-03T19:11:05.221Z,3.88
2023-01-03T19:13:50.150Z,3.63
2023-01-03T19:16:19.377Z,3.08
2023-01-03T19:18:46.839Z,2.70
2023-01-03T19:21:14.440Z,2.53
2023-01-03T19:23:42.143Z,3.15
2023-01-03T19:26:25.409Z,2.20
2023-01-03T19:28:56.330Z,3.10
2023-01-03T19:31:24.809Z,3.38
2023-01-03T19:33:52.041Z,3.22
2023-01-03T19:36:20.878Z,3.10
2023-01-03T19:38:48.517Z,3.75
2023-01-03T19:41:19.018Z,3.95
2023-01-03T19:43:46.999Z,3.35
2023-01-03T19:46:17.863Z,3.13
2023-01-03T19:48:45.518Z,2.97
2023-01-03T19:51:13.069Z,4.13
2023-01-03T19:53:43.584Z,3.58
2023-01-03T19:56:19.580Z,2.88
2023-01-03T19:58:46.823Z,3.45
2023-01-03T20:01:18.346Z,3.28
2023-01-03T20:03:45.921Z,3.58
2023-01-03T20:06:14.200Z,4.03
2023-01-03T20:08:41.451Z,3.80
2023-01-03T20:11:14.384Z,3.25
2023-01-03T20:13:41.698Z,4.00
2023-01-03T20:16:10.953Z,2.63
2023-01-03T20:18:39.694Z,2.63
2023-01-03T20:21:09.935Z,2.95
2023-01-03T20:23:43.217Z,2.50
2023-01-03T20:26:18.125Z,2.28
2023-01-03T20:28:45.476Z,2.40
2023-01-03T20:31:18.327Z,2.53
2023-01-03T20:33:47.670Z,3.45
2023-01-03T20:36:23.023Z,3.30
2023-01-03T20:38:52.642Z,2.85
2023-01-03T20:43:48.949Z,3.33
2023-01-03T20:46:23.011Z,3.00
2023-01-03T20:48:55.777Z,2.67
2023-01-03T20:51:24.517Z,2.78
2023-01-03T20:53:54.810Z,2.67
2023-01-03T20:56:22.412Z,3.05
2023-01-03T20:58:49.561Z,2.72
2023-01-03T21:01:16.849Z,2.58
2023-01-03T21:03:47.052Z,3.03
2023-01-03T21:06:19.121Z,2.70
2023-01-03T21:08:56.016Z,2.53
2023-01-03T21:11:23.894Z,2.58
2023-01-03T21:13:51.354Z,2.42
2023-01-03T21:16:28.394Z,2.15
2023-01-03T21:18:56.013Z,2.50
2023-01-03T21:21:24.411Z,2.15
2023-01-03T21:23:51.653Z,2.20
2023-01-03T21:26:18.787Z,1.88
2023-01-03T21:28:46.111Z,2.25
2023-01-03T21:31:20.455Z,1.83
2023-01-03T21:33:48.078Z,1.85
2023-01-03T21:36:21.107Z,1.92
2023-01-03T21:41:21.556Z,1.70
2023-01-03T21:43:48.770Z,1.60
2023-01-03T21:46:19.696Z,1.48
2023-01-03T21:48:46.885Z,1.45
2023-01-03T21:51:14.462Z,1.70
2023-01-03T21:53:42.108Z,2.10
2023-01-03T21:56:29.534Z,2.00
2023-01-03T21:58:56.630Z,1.60
2023-01-03T22:01:24.498Z,1.70
2023-01-03T22:04:11.315Z,2.10
2023-01-03T22:06:38.669Z,1.50
2023-01-03T22:09:26.159Z,1.70
2023-01-03T22:11:53.419Z,1.85
2023-01-03T22:14:20.518Z,2.20
2023-01-03T22:16:48.864Z,1.67
2023-01-03T22:19:16.100Z,1.90
2023-01-03T22:21:43.261Z,2.50
2023-01-03T22:24:10.428Z,2.03
2023-01-03T22:26:37.520Z,2.30
2023-01-03T22:29:06.244Z,1.77
2023-01-03T22:31:33.524Z,2.42
2023-01-03T22:34:00.761Z,2.28
2023-01-03T22:36:27.946Z,1.80
2023-01-03T22:38:55.099Z,1.90
2023-01-03T22:41:22.221Z,1.60
2023-01-03T22:43:49.350Z,2.03
2023-01-03T22:46:17.639Z,2.40
2023-01-03T22:48:45.302Z,1.73
2023-01-03T22:51:13.837Z,1.48
2023-01-03T22:53:41.690Z,1.70
2023-01-03T22:56:10.112Z,1.75
2023-01-03T22:58:37.762Z,1.88
2023-01-03T23:01:13.002Z,1.80
2023-01-03T23:03:40.324Z,1.60
2023-01-03T23:06:09.054Z,1.50
2023-01-03T23:08:36.545Z,1.83
2023-01-03T23:11:34.705Z,1.75
2023-01-03T23:14:03.510Z,1.77
2023-01-03T23:16:32.340Z,1.67
2023-01-03T23:19:00.141Z,1.75
2023-01-03T23:21:27.319Z,1.60
2023-01-03T23:23:54.517Z,1.80
2023-01-03T23:26:21.685Z,1.80
2023-01-03T23:28:48.860Z,1.70
2023-01-03T23:31:16.196Z,1.80
2023-01-03T23:33:43.414Z,1.60
2023-01-03T23:36:11.726Z,1.77
2023-01-03T23:38:38.889Z,1.40
2023-01-03T23:41:10.093Z,1.40
2023-01-03T23:43:37.633Z,1.95
2023-01-03T23:46:06.076Z,2.03
2023-01-03T23:48:33.621Z,1.20
2023-01-03T23:51:08.222Z,1.65
2023-01-03T23:53:39.211Z,1.58
2023-01-03T23:56:07.541Z,2.00
2023-01-03T23:58:34.714Z,1.83
